Time;durP1;ratioP1;P1;durP2;ratioP2;P2;SDS_P1;SDS_P2;PMS_P1;PMS_P2;Temp;Humidity;BMP_temperature;BMP_pressure;BME280_temperature;BME280_humidity;BME280_pressure;Samples;Min_cycle;Max_cycle;Signal;HPM_P1;HPM_P2
2021/06/02 00:02:44;;;;;;;5.9;4.4;;;;;;;18.8;42.6;101260;;;;
2021/06/02 00:06:44;;;;;;;5.9;4.4;;;;;;;18.9;42.5;101260;;;;
2021/06/02 00:08:44;;;;;;;5.9;4.4;;;;;;;18.8;42.2;101260;;;;
2021/06/02 00:10:44;;;;;;;5.9;4.4;;;;;;;18.9;41.8;101250;;;;
2021/06/02 00:14:44;;;;;;;5.9;4.4;;;;;;;18.8;42.5;101260;;;;
2021/06/02 00:16:44;;;;;;;5.9;4.4;;;;;;;19.1;41.9;101250;;;;
2021/06/02 00:18:44;;;;;;;5.3;4.7;;;;;;;18.9;42.7;101250;;;;
2021/06/02 00:22:44;;;;;;;5.3;4.7;;;;;;;18.8;41.7;101250;;;;
2021/06/02 00:24:44;;;;;;;5.3;4.7;;;;;;;18.7;41.9;101250;;;;
2021/06/02 00:34:44;;;;;;;5.3;4.7;;;;;;;18.6;43.3;101250;;;;
2021/06/02 00:36:44;;;;;;;5.4;4.6;;;;;;;18.8;42.9;101250;;;;
2021/06/02 00:38:44;;;;;;;5.4;4.6;;;;;;;18.6;43.0;101250;;;;
2021/06/02 00:42:44;;;;;;;5.4;4.6;;;;;;;18.5;42.8;101240;;;;
2021/06/02 00:44:44;;;;;;;5.4;4.6;;;;;;;18.4;43.5;101240;;;;
2021/06/02 00:50:44;;;;;;;5.4;4.6;;;;;;;18.3;44.3;101230;;;;
2021/06/02 00:56:44;;;;;;;5.8;5.2;;;;;;;18.5;42.9;101230;;;;
2021/06/02 00:58:44;;;;;;;5.8;5.2;;;;;;;18.3;42.8;101230;;;;
2021/06/02 01:00:44;;;;;;;5.8;5.2;;;;;;;18.2;42.7;101230;;;;
2021/06/02 01:06:44;;;;;;;5.8;5.2;;;;;;;18.1;43.2;101230;;;;
2021/06/02 01:14:44;;;;;;;5.8;5.2;;;;;;;17.9;44.3;101230;;;;
2021/06/02 01:16:44;;;;;;;6.8;6.1;;;;;;;18.0;44.5;101240;;;;
2021/06/02 01:18:44;;;;;;;6.8;6.1;;;;;;;17.7;45.3;101240;;;;
2021/06/02 01:20:44;;;;;;;6.8;6.1;;;;;;;17.5;45.7;101240;;;;
2021/06/02 01:22:44;;;;;;;6.8;6.1;;;;;;;17.6;45.2;101240;;;;
2021/06/02 01:26:44;;;;;;;6.8;6.1;;;;;;;17.4;45.9;101240;;;;
2021/06/02 01:28:44;;;;;;;6.8;6.1;;;;;;;17.6;45.4;101240;;;;
2021/06/02 01:30:44;;;;;;;6.8;6.1;;;;;;;17.5;46.0;101240;;;;
2021/06/02 01:32:44;;;;;;;6.8;6.1;;;;;;;17.4;45.7;101240;;;;
2021/06/02 01:34:44;;;;;;;6.8;6.1;;;;;;;17.5;45.7;101240;;;;
2021/06/02 01:36:44;;;;;;;6.2;5.3;;;;;;;17.6;45.5;101240;;;;
2021/06/02 01:38:44;;;;;;;6.2;5.3;;;;;;;17.4;46.2;101240;;;;
2021/06/02 01:40:44;;;;;;;6.2;5.3;;;;;;;17.3;46.7;101240;;;;
2021/06/02 01:42:44;;;;;;;6.2;5.3;;;;;;;17.1;46.8;101240;;;;
2021/06/02 01:44:44;;;;;;;6.2;5.3;;;;;;;17.3;45.9;101250;;;;
2021/06/02 01:46:44;;;;;;;6.2;5.3;;;;;;;17.0;48.2;101240;;;;
2021/06/02 01:48:44;;;;;;;6.2;5.3;;;;;;;17.1;47.1;101240;;;;
2021/06/02 01:50:44;;;;;;;6.2;5.3;;;;;;;17.2;46.3;101240;;;;
2021/06/02 01:56:44;;;;;;;7.6;5.9;;;;;;;17.3;46.7;101240;;;;
2021/06/02 01:58:44;;;;;;;7.6;5.9;;;;;;;17.2;45.5;101250;;;;
2021/06/02 02:04:48;;;;;;;7.6;5.9;;;;;;;17.1;46.6;101240;;;;
2021/06/02 02:08:44;;;;;;;7.6;5.9;;;;;;;16.9;47.4;101240;;;;
2021/06/02 02:10:44;;;;;;;7.6;5.9;;;;;;;17.0;46.8;101240;;;;
2021/06/02 02:16:44;;;;;;;7.1;6.2;;;;;;;17.1;46.4;101230;;;;
2021/06/02 02:18:44;;;;;;;7.1;6.2;;;;;;;17.0;46.5;101230;;;;
2021/06/02 02:20:44;;;;;;;7.1;6.2;;;;;;;16.9;46.6;101230;;;;
2021/06/02 02:30:44;;;;;;;7.1;6.2;;;;;;;16.8;46.6;101230;;;;
2021/06/02 02:34:44;;;;;;;7.1;6.2;;;;;;;16.5;48.9;101230;;;;
2021/06/02 02:36:44;;;;;;;7.5;6.6;;;;;;;16.6;48.9;101230;;;;
2021/06/02 02:38:44;;;;;;;7.5;6.6;;;;;;;16.3;49.6;101230;;;;
2021/06/02 02:40:44;;;;;;;7.5;6.6;;;;;;;16.2;50.4;101230;;;;
2021/06/02 02:42:44;;;;;;;7.5;6.6;;;;;;;15.9;51.0;101230;;;;
2021/06/02 02:44:44;;;;;;;7.5;6.6;;;;;;;16.0;50.6;101230;;;;
2021/06/02 02:46:44;;;;;;;7.5;6.6;;;;;;;16.1;50.7;101230;;;;
2021/06/02 02:48:44;;;;;;;7.5;6.6;;;;;;;16.2;50.1;101230;;;;
2021/06/02 02:50:44;;;;;;;7.5;6.6;;;;;;;16.0;51.0;101230;;;;
2021/06/02 02:52:44;;;;;;;7.5;6.6;;;;;;;16.1;50.3;101240;;;;
2021/06/02 02:54:44;;;;;;;7.5;6.6;;;;;;;16.2;50.4;101230;;;;
2021/06/02 02:56:44;;;;;;;7.6;6.8;;;;;;;16.3;49.5;101240;;;;
2021/06/02 02:58:44;;;;;;;7.6;6.8;;;;;;;16.2;49.2;101230;;;;
2021/06/02 03:00:44;;;;;;;7.6;6.8;;;;;;;16.3;49.0;101230;;;;
2021/06/02 03:08:44;;;;;;;7.6;6.8;;;;;;;16.2;49.3;101250;;;;
2021/06/02 03:14:44;;;;;;;7.6;6.8;;;;;;;16.1;50.1;101250;;;;
2021/06/02 03:16:44;;;;;;;9.7;7.9;;;;;;;16.3;49.4;101250;;;;
2021/06/02 03:18:44;;;;;;;9.7;7.9;;;;;;;16.1;49.6;101250;;;;
2021/06/02 03:20:44;;;;;;;9.7;7.9;;;;;;;16.2;49.2;101250;;;;
2021/06/02 03:30:44;;;;;;;9.7;7.9;;;;;;;16.1;49.8;101240;;;;
2021/06/02 03:36:44;;;;;;;8.7;7.8;;;;;;;16.2;49.9;101240;;;;
2021/06/02 03:38:44;;;;;;;8.7;7.8;;;;;;;16.0;50.8;101230;;;;
2021/06/02 03:42:44;;;;;;;8.7;7.8;;;;;;;15.9;50.5;101240;;;;
2021/06/02 03:44:44;;;;;;;8.7;7.8;;;;;;;16.0;49.9;101240;;;;
2021/06/02 03:46:44;;;;;;;8.7;7.8;;;;;;;16.1;49.9;101240;;;;
2021/06/02 03:50:44;;;;;;;8.7;7.8;;;;;;;16.0;52.2;101240;;;;
2021/06/02 03:52:44;;;;;;;8.7;7.8;;;;;;;15.9;51.1;101240;;;;
2021/06/02 03:54:44;;;;;;;8.7;7.8;;;;;;;16.0;50.8;101240;;;;
2021/06/02 03:56:44;;;;;;;10.4;9.3;;;;;;;16.1;50.7;101240;;;;
2021/06/02 03:58:44;;;;;;;10.4;9.3;;;;;;;15.9;52.4;101240;;;;
2021/06/02 04:00:44;;;;;;;10.4;9.3;;;;;;;15.8;52.2;101240;;;;
2021/06/02 04:04:44;;;;;;;10.4;9.3;;;;;;;15.9;51.8;101240;;;;
2021/06/02 04:08:45;;;;;;;10.4;9.3;;;;;;;16.0;51.5;101240;;;;
2021/06/02 04:16:44;;;;;;;10.8;9.7;;;;;;;16.1;52.1;101240;;;;
2021/06/02 04:22:44;;;;;;;10.8;9.7;;;;;;;16.0;51.7;101240;;;;
2021/06/02 04:24:44;;;;;;;10.8;9.7;;;;;;;16.1;50.6;101230;;;;
2021/06/02 04:28:44;;;;;;;10.8;9.7;;;;;;;16.2;50.9;101230;;;;
2021/06/02 04:30:44;;;;;;;10.8;9.7;;;;;;;16.1;52.2;101230;;;;
2021/06/02 04:32:44;;;;;;;10.8;9.7;;;;;;;16.2;51.0;101220;;;;
2021/06/02 04:34:44;;;;;;;10.8;9.7;;;;;;;16.3;51.6;101220;;;;
2021/06/02 04:42:44;;;;;;;12.1;9.8;;;;;;;16.1;53.9;101220;;;;
2021/06/02 04:44:44;;;;;;;12.1;9.8;;;;;;;16.2;53.5;101220;;;;
2021/06/02 04:58:44;;;;;;;11.6;10.5;;;;;;;16.4;53.4;101210;;;;
2021/06/02 05:02:44;;;;;;;11.6;10.5;;;;;;;16.5;53.2;101220;;;;
2021/06/02 05:04:44;;;;;;;11.6;10.5;;;;;;;16.6;52.7;101220;;;;
2021/06/02 05:08:44;;;;;;;11.6;10.5;;;;;;;16.7;52.7;101230;;;;
2021/06/02 05:10:44;;;;;;;11.6;10.5;;;;;;;16.8;52.6;101230;;;;
2021/06/02 05:12:44;;;;;;;11.6;10.5;;;;;;;16.9;51.8;101230;;;;
2021/06/02 05:14:44;;;;;;;11.6;10.5;;;;;;;16.8;51.6;101220;;;;
2021/06/02 05:16:44;;;;;;;12.5;10.4;;;;;;;17.0;51.5;101230;;;;
2021/06/02 05:22:44;;;;;;;12.5;10.4;;;;;;;17.0;52.3;101230;;;;
2021/06/02 05:24:44;;;;;;;12.5;10.4;;;;;;;17.1;51.1;101240;;;;
2021/06/02 05:26:44;;;;;;;12.5;10.4;;;;;;;17.2;51.8;101240;;;;
2021/06/02 05:28:44;;;;;;;12.5;10.4;;;;;;;17.1;51.8;101240;;;;
2021/06/02 05:30:44;;;;;;;12.5;10.4;;;;;;;17.3;51.3;101240;;;;
2021/06/02 05:32:44;;;;;;;12.5;10.4;;;;;;;17.4;50.7;101240;;;;
2021/06/02 05:34:44;;;;;;;12.5;10.4;;;;;;;17.5;50.8;101240;;;;
2021/06/02 05:40:44;;;;;;;11.9;10.3;;;;;;;17.8;50.3;101230;;;;
2021/06/02 05:42:44;;;;;;;11.9;10.3;;;;;;;17.7;49.9;101240;;;;
2021/06/02 05:46:44;;;;;;;11.9;10.3;;;;;;;17.9;50.1;101240;;;;
2021/06/02 05:50:44;;;;;;;11.9;10.3;;;;;;;18.0;51.1;101240;;;;
2021/06/02 05:52:44;;;;;;;11.9;10.3;;;;;;;18.1;50.8;101240;;;;
2021/06/02 05:54:44;;;;;;;11.9;10.3;;;;;;;18.2;50.1;101240;;;;
2021/06/02 05:56:44;;;;;;;12.6;10.4;;;;;;;18.3;50.7;101230;;;;
2021/06/02 05:58:44;;;;;;;12.6;10.4;;;;;;;18.5;50.1;101230;;;;
2021/06/02 06:00:44;;;;;;;12.6;10.4;;;;;;;18.6;49.7;101230;;;;
2021/06/02 06:02:44;;;;;;;12.6;10.4;;;;;;;18.5;49.9;101230;;;;
2021/06/02 06:04:44;;;;;;;12.6;10.4;;;;;;;18.6;49.9;101230;;;;
2021/06/02 06:06:44;;;;;;;12.6;10.4;;;;;;;18.7;49.7;101230;;;;
2021/06/02 06:10:44;;;;;;;12.6;10.4;;;;;;;18.8;49.4;101230;;;;
2021/06/02 06:12:44;;;;;;;12.6;10.4;;;;;;;18.9;49.3;101230;;;;
2021/06/02 06:16:44;;;;;;;13.5;10.2;;;;;;;19.1;49.4;101240;;;;
2021/06/02 06:18:44;;;;;;;13.5;10.2;;;;;;;19.2;49.2;101230;;;;
2021/06/02 06:20:44;;;;;;;13.5;10.2;;;;;;;19.1;49.5;101230;;;;
2021/06/02 06:24:45;;;;;;;13.5;10.2;;;;;;;19.2;49.0;101230;;;;
2021/06/02 06:26:44;;;;;;;13.5;10.2;;;;;;;19.4;47.5;101240;;;;
2021/06/02 06:32:44;;;;;;;13.5;10.2;;;;;;;19.5;46.5;101240;;;;
2021/06/02 06:34:44;;;;;;;13.5;10.2;;;;;;;19.6;46.6;101250;;;;
2021/06/02 06:36:44;;;;;;;10.2;9.2;;;;;;;19.7;46.3;101240;;;;
2021/06/02 06:40:44;;;;;;;10.2;9.2;;;;;;;19.8;44.6;101240;;;;
2021/06/02 06:44:44;;;;;;;10.2;9.2;;;;;;;19.9;45.4;101230;;;;
2021/06/02 06:46:44;;;;;;;10.2;9.2;;;;;;;20.0;45.1;101230;;;;
2021/06/02 06:48:44;;;;;;;10.2;9.2;;;;;;;19.9;45.0;101230;;;;
2021/06/02 06:52:44;;;;;;;10.2;9.2;;;;;;;20.1;45.3;101230;;;;
2021/06/02 06:56:44;;;;;;;13.0;8.8;;;;;;;20.4;44.8;101240;;;;
2021/06/02 07:02:44;;;;;;;13.0;8.8;;;;;;;20.5;43.8;101230;;;;
2021/06/02 07:06:46;;;;;;;13.0;8.8;;;;;;;20.6;43.9;101230;;;;
2021/06/02 07:08:44;;;;;;;13.0;8.8;;;;;;;20.7;43.3;101230;;;;
2021/06/02 07:10:44;;;;;;;13.0;8.8;;;;;;;20.8;43.2;101220;;;;
2021/06/02 07:14:44;;;;;;;13.0;8.8;;;;;;;20.9;43.5;101230;;;;
2021/06/02 07:16:44;;;;;;;10.5;8.2;;;;;;;20.8;44.1;101220;;;;
2021/06/02 07:18:44;;;;;;;10.5;8.2;;;;;;;20.9;43.7;101220;;;;
2021/06/02 07:20:44;;;;;;;10.5;8.2;;;;;;;21.1;43.5;101220;;;;
2021/06/02 07:24:44;;;;;;;10.5;8.2;;;;;;;21.3;42.7;101220;;;;
2021/06/02 07:26:54;;;;;;;10.5;8.2;;;;;;;21.2;42.2;101230;;;;
2021/06/02 07:30:44;;;;;;;10.5;8.2;;;;;;;21.3;41.4;101230;;;;
2021/06/02 07:32:44;;;;;;;10.5;8.2;;;;;;;21.4;42.0;101230;;;;
2021/06/02 07:36:44;;;;;;;11.1;8.8;;;;;;;21.6;42.1;101220;;;;
2021/06/02 07:40:44;;;;;;;11.1;8.8;;;;;;;21.7;40.7;101220;;;;
2021/06/02 07:42:44;;;;;;;11.1;8.8;;;;;;;21.9;41.3;101220;;;;
2021/06/02 07:44:44;;;;;;;11.1;8.8;;;;;;;21.8;40.0;101220;;;;
2021/06/02 07:48:44;;;;;;;11.1;8.8;;;;;;;22.0;41.0;101210;;;;
2021/06/02 07:50:44;;;;;;;11.1;8.8;;;;;;;22.1;40.9;101210;;;;
2021/06/02 07:56:44;;;;;;;13.3;9.1;;;;;;;22.2;40.8;101220;;;;
2021/06/02 07:58:44;;;;;;;13.3;9.1;;;;;;;22.4;40.4;101220;;;;
2021/06/02 08:02:44;;;;;;;13.3;9.1;;;;;;;22.5;39.8;101220;;;;
2021/06/02 08:04:44;;;;;;;13.3;9.1;;;;;;;22.4;39.7;101220;;;;
2021/06/02 08:08:44;;;;;;;13.3;9.1;;;;;;;22.6;39.6;101230;;;;
2021/06/02 08:10:44;;;;;;;13.3;9.1;;;;;;;22.7;39.3;101230;;;;
2021/06/02 08:12:44;;;;;;;13.3;9.1;;;;;;;22.9;38.6;101230;;;;
2021/06/02 08:14:44;;;;;;;13.3;9.1;;;;;;;22.8;38.5;101230;;;;
2021/06/02 08:16:44;;;;;;;8.7;7.8;;;;;;;22.9;38.4;101230;;;;
2021/06/02 08:18:44;;;;;;;8.7;7.8;;;;;;;23.0;38.3;101230;;;;
2021/06/02 08:20:44;;;;;;;8.7;7.8;;;;;;;23.1;38.0;101230;;;;
2021/06/02 08:22:44;;;;;;;8.7;7.8;;;;;;;23.2;37.9;101230;;;;
2021/06/02 08:24:44;;;;;;;8.7;7.8;;;;;;;23.3;38.1;101230;;;;
2021/06/02 08:26:45;;;;;;;8.7;7.8;;;;;;;23.4;37.9;101230;;;;
2021/06/02 08:28:44;;;;;;;8.7;7.8;;;;;;;23.3;37.6;101230;;;;
2021/06/02 08:30:44;;;;;;;8.7;7.8;;;;;;;23.5;37.6;101230;;;;
2021/06/02 08:32:44;;;;;;;8.7;7.8;;;;;;;23.7;37.8;101230;;;;
2021/06/02 08:34:44;;;;;;;8.7;7.8;;;;;;;23.8;36.6;101230;;;;
2021/06/02 08:38:44;;;;;;;8.0;6.7;;;;;;;23.9;36.9;101220;;;;
2021/06/02 08:40:44;;;;;;;8.0;6.7;;;;;;;24.0;37.0;101230;;;;
2021/06/02 08:42:44;;;;;;;8.0;6.7;;;;;;;24.1;37.2;101220;;;;
2021/06/02 08:44:44;;;;;;;8.0;6.7;;;;;;;24.2;36.1;101220;;;;
2021/06/02 08:50:44;;;;;;;8.0;6.7;;;;;;;24.3;35.9;101220;;;;
2021/06/02 08:52:44;;;;;;;8.0;6.7;;;;;;;24.5;35.5;101220;;;;
2021/06/02 08:54:44;;;;;;;8.0;6.7;;;;;;;24.6;35.0;101220;;;;
2021/06/02 08:56:44;;;;;;;5.3;4.5;;;;;;;24.7;34.9;101220;;;;
2021/06/02 08:58:44;;;;;;;5.3;4.5;;;;;;;24.9;34.0;101220;;;;
2021/06/02 09:00:44;;;;;;;5.3;4.5;;;;;;;24.8;34.6;101220;;;;
2021/06/02 09:02:44;;;;;;;5.3;4.5;;;;;;;24.9;34.6;101220;;;;
2021/06/02 09:04:44;;;;;;;5.3;4.5;;;;;;;25.0;33.7;101220;;;;
2021/06/02 09:08:44;;;;;;;5.3;4.5;;;;;;;24.9;32.2;101220;;;;
2021/06/02 09:12:44;;;;;;;5.3;4.5;;;;;;;25.0;32.7;101220;;;;
2021/06/02 09:14:45;;;;;;;5.3;4.5;;;;;;;25.3;33.1;101210;;;;
2021/06/02 09:18:44;;;;;;;6.4;4.4;;;;;;;25.4;32.3;101210;;;;
2021/06/02 09:24:44;;;;;;;6.4;4.4;;;;;;;25.3;31.3;101210;;;;
2021/06/02 09:26:44;;;;;;;6.4;4.4;;;;;;;25.0;32.0;101220;;;;
2021/06/02 09:28:44;;;;;;;6.4;4.4;;;;;;;25.2;31.5;101220;;;;
2021/06/02 09:30:44;;;;;;;6.4;4.4;;;;;;;25.5;32.2;101210;;;;
2021/06/02 09:32:44;;;;;;;6.4;4.4;;;;;;;25.8;32.5;101210;;;;
2021/06/02 09:34:44;;;;;;;6.4;4.4;;;;;;;26.0;31.2;101220;;;;
2021/06/02 09:36:44;;;;;;;3.8;2.9;;;;;;;25.8;30.7;101220;;;;
2021/06/02 09:40:44;;;;;;;3.8;2.9;;;;;;;25.9;30.0;101210;;;;
2021/06/02 09:42:44;;;;;;;3.8;2.9;;;;;;;26.0;30.7;101220;;;;
2021/06/02 09:48:44;;;;;;;3.8;2.9;;;;;;;26.1;31.0;101210;;;;
2021/06/02 09:52:45;;;;;;;3.8;2.9;;;;;;;26.4;29.9;101210;;;;
2021/06/02 09:54:44;;;;;;;3.8;2.9;;;;;;;26.2;29.0;101200;;;;
2021/06/02 09:56:44;;;;;;;2.6;2.4;;;;;;;26.0;27.4;101200;;;;
2021/06/02 09:58:44;;;;;;;2.6;2.4;;;;;;;25.8;27.8;101200;;;;
2021/06/02 10:02:44;;;;;;;2.6;2.4;;;;;;;26.1;28.5;101200;;;;
2021/06/02 10:06:44;;;;;;;2.6;2.4;;;;;;;26.3;28.2;101200;;;;
2021/06/02 10:12:44;;;;;;;2.6;2.4;;;;;;;26.4;28.0;101200;;;;
2021/06/02 10:14:44;;;;;;;2.6;2.4;;;;;;;26.6;27.5;101190;;;;
2021/06/02 10:16:45;;;;;;;3.7;2.8;;;;;;;26.7;27.9;101200;;;;
2021/06/02 10:18:44;;;;;;;3.7;2.8;;;;;;;26.6;27.4;101200;;;;
2021/06/02 10:22:45;;;;;;;3.7;2.8;;;;;;;26.4;27.4;101190;;;;
2021/06/02 10:24:44;;;;;;;3.7;2.8;;;;;;;26.6;27.3;101200;;;;
2021/06/02 10:26:44;;;;;;;3.7;2.8;;;;;;;26.7;26.8;101190;;;;
2021/06/02 10:30:44;;;;;;;3.7;2.8;;;;;;;26.8;27.7;101190;;;;
2021/06/02 10:32:44;;;;;;;3.7;2.8;;;;;;;26.9;27.9;101190;;;;
2021/06/02 10:34:44;;;;;;;3.7;2.8;;;;;;;27.1;28.0;101190;;;;
2021/06/02 10:38:44;;;;;;;3.3;3.0;;;;;;;26.9;26.0;101190;;;;
2021/06/02 10:40:44;;;;;;;3.3;3.0;;;;;;;27.0;29.3;101190;;;;
2021/06/02 10:42:44;;;;;;;3.3;3.0;;;;;;;26.9;26.9;101180;;;;
2021/06/02 10:44:44;;;;;;;3.3;3.0;;;;;;;27.2;28.5;101190;;;;
2021/06/02 10:46:44;;;;;;;3.3;3.0;;;;;;;27.3;26.7;101190;;;;
2021/06/02 10:48:44;;;;;;;3.3;3.0;;;;;;;27.2;28.7;101190;;;;
2021/06/02 10:52:44;;;;;;;3.3;3.0;;;;;;;27.4;26.3;101190;;;;
2021/06/02 10:54:45;;;;;;;3.3;3.0;;;;;;;27.5;26.5;101190;;;;
2021/06/02 11:02:44;;;;;;;3.2;2.6;;;;;;;27.4;25.7;101180;;;;
2021/06/02 11:04:44;;;;;;;3.2;2.6;;;;;;;27.5;26.2;101180;;;;
2021/06/02 11:08:44;;;;;;;3.2;2.6;;;;;;;27.1;25.1;101180;;;;
2021/06/02 11:10:44;;;;;;;3.2;2.6;;;;;;;27.3;25.2;101180;;;;
2021/06/02 11:12:44;;;;;;;3.2;2.6;;;;;;;27.4;24.8;101180;;;;
2021/06/02 11:14:44;;;;;;;3.2;2.6;;;;;;;27.7;28.1;101180;;;;
2021/06/02 11:16:44;;;;;;;5.8;2.6;;;;;;;27.5;24.6;101180;;;;
2021/06/02 11:18:44;;;;;;;5.8;2.6;;;;;;;27.4;26.1;101180;;;;
2021/06/02 11:20:44;;;;;;;5.8;2.6;;;;;;;27.5;24.4;101180;;;;
2021/06/02 11:22:44;;;;;;;5.8;2.6;;;;;;;27.1;24.3;101180;;;;
2021/06/02 11:24:44;;;;;;;5.8;2.6;;;;;;;27.6;26.8;101180;;;;
2021/06/02 11:28:44;;;;;;;5.8;2.6;;;;;;;27.7;24.6;101170;;;;
2021/06/02 11:32:44;;;;;;;5.8;2.6;;;;;;;28.0;25.5;101180;;;;
2021/06/02 11:34:44;;;;;;;5.8;2.6;;;;;;;28.1;25.7;101180;;;;
2021/06/02 11:36:44;;;;;;;3.0;2.6;;;;;;;28.2;24.9;101180;;;;
2021/06/02 11:40:44;;;;;;;3.0;2.6;;;;;;;28.1;24.5;101170;;;;
2021/06/02 11:46:44;;;;;;;3.0;2.6;;;;;;;28.4;26.2;101180;;;;
2021/06/02 11:48:44;;;;;;;3.0;2.6;;;;;;;28.3;24.7;101180;;;;
2021/06/02 11:50:44;;;;;;;3.0;2.6;;;;;;;28.2;22.7;101180;;;;
2021/06/02 11:52:44;;;;;;;3.0;2.6;;;;;;;28.1;23.9;101180;;;;
2021/06/02 11:54:44;;;;;;;3.0;2.6;;;;;;;27.8;24.3;101170;;;;
2021/06/02 11:56:44;;;;;;;2.4;2.2;;;;;;;27.6;22.6;101180;;;;
2021/06/02 11:58:44;;;;;;;2.4;2.2;;;;;;;27.7;23.1;101170;;;;
2021/06/02 12:00:47;;;;;;;2.4;2.2;;;;;;;27.9;24.0;101170;;;;
2021/06/02 12:02:44;;;;;;;2.4;2.2;;;;;;;28.2;24.0;101170;;;;
2021/06/02 12:04:44;;;;;;;2.4;2.2;;;;;;;28.4;24.2;101170;;;;
2021/06/02 12:06:44;;;;;;;2.4;2.2;;;;;;;28.5;24.3;101170;;;;
2021/06/02 12:08:49;;;;;;;2.4;2.2;;;;;;;28.7;28.6;101170;;;;
2021/06/02 12:10:44;;;;;;;2.4;2.2;;;;;;;28.5;24.7;101170;;;;
2021/06/02 12:18:45;;;;;;;5.4;3.4;;;;;;;28.3;23.2;101180;;;;
2021/06/02 12:22:44;;;;;;;5.4;3.4;;;;;;;28.1;24.0;101170;;;;
2021/06/02 12:24:44;;;;;;;5.4;3.4;;;;;;;28.5;24.4;101170;;;;
2021/06/02 12:26:46;;;;;;;5.4;3.4;;;;;;;28.4;23.1;101170;;;;
2021/06/02 12:28:44;;;;;;;5.4;3.4;;;;;;;28.6;22.7;101170;;;;
2021/06/02 12:30:44;;;;;;;5.4;3.4;;;;;;;28.7;23.7;101170;;;;
2021/06/02 12:32:44;;;;;;;5.4;3.4;;;;;;;28.6;22.9;101160;;;;
2021/06/02 12:34:44;;;;;;;5.4;3.4;;;;;;;28.8;23.6;101160;;;;
2021/06/02 12:36:45;;;;;;;3.3;2.6;;;;;;;28.9;24.4;101160;;;;
2021/06/02 12:38:44;;;;;;;3.3;2.6;;;;;;;28.6;22.3;101160;;;;
2021/06/02 12:40:44;;;;;;;3.3;2.6;;;;;;;28.2;22.6;101160;;;;
2021/06/02 12:42:46;;;;;;;3.3;2.6;;;;;;;28.5;22.9;101160;;;;
2021/06/02 12:44:46;;;;;;;3.3;2.6;;;;;;;28.6;22.8;101150;;;;
2021/06/02 12:46:44;;;;;;;3.3;2.6;;;;;;;28.4;22.9;101150;;;;
2021/06/02 12:48:44;;;;;;;3.3;2.6;;;;;;;28.3;22.8;101150;;;;
2021/06/02 12:50:44;;;;;;;3.3;2.6;;;;;;;28.5;24.1;101150;;;;
2021/06/02 12:52:44;;;;;;;3.3;2.6;;;;;;;28.9;24.8;101150;;;;
2021/06/02 12:54:44;;;;;;;3.3;2.6;;;;;;;29.0;24.3;101150;;;;
2021/06/02 12:56:44;;;;;;;3.1;2.9;;;;;;;29.1;23.0;101150;;;;
2021/06/02 13:00:44;;;;;;;3.1;2.9;;;;;;;29.3;22.0;101150;;;;
2021/06/02 13:04:44;;;;;;;3.1;2.9;;;;;;;29.4;22.7;101150;;;;
2021/06/02 13:06:44;;;;;;;3.1;2.9;;;;;;;29.0;22.5;101150;;;;
2021/06/02 13:10:44;;;;;;;3.1;2.9;;;;;;;29.2;21.6;101150;;;;
2021/06/02 13:12:44;;;;;;;3.1;2.9;;;;;;;29.4;22.7;101150;;;;
2021/06/02 13:14:44;;;;;;;3.1;2.9;;;;;;;29.7;22.1;101150;;;;
2021/06/02 13:16:44;;;;;;;3.7;2.6;;;;;;;29.9;20.9;101150;;;;
2021/06/02 13:18:44;;;;;;;3.7;2.6;;;;;;;29.5;22.4;101140;;;;
2021/06/02 13:22:44;;;;;;;3.7;2.6;;;;;;;29.7;22.6;101140;;;;
2021/06/02 13:24:44;;;;;;;3.7;2.6;;;;;;;29.9;22.6;101150;;;;
2021/06/02 13:26:44;;;;;;;3.7;2.6;;;;;;;29.8;20.9;101140;;;;
2021/06/02 13:28:45;;;;;;;3.7;2.6;;;;;;;29.1;20.4;101150;;;;
2021/06/02 13:32:44;;;;;;;3.7;2.6;;;;;;;29.7;24.5;101150;;;;
2021/06/02 13:34:44;;;;;;;3.7;2.6;;;;;;;30.0;24.1;101140;;;;
2021/06/02 13:36:44;;;;;;;3.0;2.2;;;;;;;29.5;21.1;101140;;;;
2021/06/02 13:40:46;;;;;;;3.0;2.2;;;;;;;29.7;20.2;101140;;;;
2021/06/02 13:42:44;;;;;;;3.0;2.2;;;;;;;29.9;21.3;101140;;;;
2021/06/02 13:44:44;;;;;;;3.0;2.2;;;;;;;30.1;20.4;101140;;;;
2021/06/02 13:46:44;;;;;;;3.0;2.2;;;;;;;29.5;19.2;101130;;;;
2021/06/02 13:48:44;;;;;;;3.0;2.2;;;;;;;29.6;19.1;101130;;;;
2021/06/02 13:52:44;;;;;;;3.0;2.2;;;;;;;29.3;21.1;101140;;;;
2021/06/02 13:54:44;;;;;;;3.0;2.2;;;;;;;29.8;20.1;101130;;;;
2021/06/02 14:00:44;;;;;;;3.8;2.4;;;;;;;29.9;20.4;101130;;;;
2021/06/02 14:02:44;;;;;;;3.8;2.4;;;;;;;30.1;22.1;101110;;;;
2021/06/02 14:04:44;;;;;;;3.8;2.4;;;;;;;30.3;20.0;101120;;;;
2021/06/02 14:06:46;;;;;;;3.8;2.4;;;;;;;30.2;20.5;101120;;;;
2021/06/02 14:08:44;;;;;;;3.8;2.4;;;;;;;30.0;21.0;101120;;;;
2021/06/02 14:10:44;;;;;;;3.8;2.4;;;;;;;30.2;20.3;101120;;;;
2021/06/02 14:12:44;;;;;;;3.8;2.4;;;;;;;30.5;19.6;101120;;;;
2021/06/02 14:14:44;;;;;;;3.8;2.4;;;;;;;30.4;19.9;101120;;;;
2021/06/02 14:16:44;;;;;;;3.6;2.3;;;;;;;30.5;19.6;101120;;;;
2021/06/02 14:18:44;;;;;;;3.6;2.3;;;;;;;31.0;21.4;101120;;;;
2021/06/02 14:20:44;;;;;;;3.6;2.3;;;;;;;31.1;22.1;101120;;;;
2021/06/02 14:22:48;;;;;;;3.6;2.3;;;;;;;31.4;21.7;101120;;;;
2021/06/02 14:24:44;;;;;;;3.6;2.3;;;;;;;31.9;21.3;101120;;;;
2021/06/02 14:26:44;;;;;;;3.6;2.3;;;;;;;31.8;19.1;101120;;;;
2021/06/02 14:28:44;;;;;;;3.6;2.3;;;;;;;31.6;18.5;101110;;;;
2021/06/02 14:30:44;;;;;;;3.6;2.3;;;;;;;32.1;19.0;101110;;;;
2021/06/02 14:32:44;;;;;;;3.6;2.3;;;;;;;32.2;19.4;101120;;;;
2021/06/02 14:34:44;;;;;;;3.6;2.3;;;;;;;31.6;18.7;101110;;;;
2021/06/02 14:36:44;;;;;;;4.4;2.4;;;;;;;32.0;18.9;101120;;;;
2021/06/02 14:38:44;;;;;;;4.4;2.4;;;;;;;32.3;18.0;101110;;;;
2021/06/02 14:40:44;;;;;;;4.4;2.4;;;;;;;32.8;19.9;101110;;;;
2021/06/02 14:42:44;;;;;;;4.4;2.4;;;;;;;33.0;19.2;101110;;;;
2021/06/02 14:44:44;;;;;;;4.4;2.4;;;;;;;32.9;19.2;101110;;;;
2021/06/02 14:46:44;;;;;;;4.4;2.4;;;;;;;33.0;17.0;101110;;;;
2021/06/02 14:50:44;;;;;;;4.4;2.4;;;;;;;32.5;16.5;101110;;;;
2021/06/02 14:52:44;;;;;;;4.4;2.4;;;;;;;32.9;18.8;101120;;;;
2021/06/02 14:54:44;;;;;;;4.4;2.4;;;;;;;33.1;16.3;101110;;;;
2021/06/02 14:56:44;;;;;;;4.4;2.2;;;;;;;33.7;18.7;101110;;;;
2021/06/02 14:58:44;;;;;;;4.4;2.2;;;;;;;34.2;16.4;101110;;;;
2021/06/02 15:00:44;;;;;;;4.4;2.2;;;;;;;34.6;17.1;101110;;;;
2021/06/02 15:02:44;;;;;;;4.4;2.2;;;;;;;34.7;16.3;101100;;;;
2021/06/02 15:04:44;;;;;;;4.4;2.2;;;;;;;34.4;15.7;101100;;;;
2021/06/02 15:06:44;;;;;;;4.4;2.2;;;;;;;34.0;15.4;101110;;;;
2021/06/02 15:08:44;;;;;;;4.4;2.2;;;;;;;34.7;18.1;101110;;;;
2021/06/02 15:10:44;;;;;;;4.4;2.2;;;;;;;34.5;14.4;101110;;;;
2021/06/02 15:12:44;;;;;;;4.4;2.2;;;;;;;34.9;15.7;101100;;;;
2021/06/02 15:14:46;;;;;;;4.4;2.2;;;;;;;34.8;15.2;101110;;;;
2021/06/02 15:16:44;;;;;;;7.4;2.0;;;;;;;35.1;15.8;101100;;;;
2021/06/02 15:18:44;;;;;;;7.4;2.0;;;;;;;35.0;15.5;101100;;;;
2021/06/02 15:20:44;;;;;;;7.4;2.0;;;;;;;35.3;18.1;101090;;;;
2021/06/02 15:22:44;;;;;;;7.4;2.0;;;;;;;35.2;15.6;101100;;;;
2021/06/02 15:24:44;;;;;;;7.4;2.0;;;;;;;35.0;14.4;101100;;;;
2021/06/02 15:26:44;;;;;;;7.4;2.0;;;;;;;35.7;15.9;101090;;;;
2021/06/02 15:28:44;;;;;;;7.4;2.0;;;;;;;35.2;15.8;101100;;;;
2021/06/02 15:32:44;;;;;;;7.4;2.0;;;;;;;35.5;14.6;101090;;;;
2021/06/02 15:36:44;;;;;;;3.8;2.4;;;;;;;35.6;14.2;101090;;;;
2021/06/02 15:38:44;;;;;;;3.8;2.4;;;;;;;35.0;13.7;101090;;;;
2021/06/02 15:40:44;;;;;;;3.8;2.4;;;;;;;35.1;14.5;101090;;;;
2021/06/02 15:44:44;;;;;;;3.8;2.4;;;;;;;34.9;14.4;101090;;;;
2021/06/02 15:46:44;;;;;;;3.8;2.4;;;;;;;36.0;15.4;101090;;;;
2021/06/02 15:50:44;;;;;;;3.8;2.4;;;;;;;36.4;17.0;101090;;;;
2021/06/02 15:52:44;;;;;;;3.8;2.4;;;;;;;36.5;15.6;101090;;;;
2021/06/02 15:54:44;;;;;;;3.8;2.4;;;;;;;36.7;15.4;101090;;;;
2021/06/02 15:56:44;;;;;;;26.5;24.4;;;;;;;36.9;14.7;101090;;;;
2021/06/02 15:58:44;;;;;;;26.5;24.4;;;;;;;37.2;14.8;101080;;;;
2021/06/02 16:00:45;;;;;;;26.5;24.4;;;;;;;37.4;15.2;101080;;;;
2021/06/02 16:02:44;;;;;;;26.5;24.4;;;;;;;36.0;16.0;101080;;;;
2021/06/02 16:04:47;;;;;;;26.5;24.4;;;;;;;36.3;13.3;101070;;;;
2021/06/02 16:06:44;;;;;;;26.5;24.4;;;;;;;36.4;15.5;101070;;;;
2021/06/02 16:08:44;;;;;;;26.5;24.4;;;;;;;36.2;13.9;101080;;;;
2021/06/02 16:10:44;;;;;;;26.5;24.4;;;;;;;36.7;13.6;101080;;;;
2021/06/02 16:12:44;;;;;;;26.5;24.4;;;;;;;37.1;15.8;101070;;;;
2021/06/02 16:14:44;;;;;;;26.5;24.4;;;;;;;36.9;16.4;101080;;;;
2021/06/02 16:16:44;;;;;;;5.9;4.5;;;;;;;36.7;13.6;101080;;;;
2021/06/02 16:18:44;;;;;;;5.9;4.5;;;;;;;36.8;13.5;101080;;;;
2021/06/02 16:20:44;;;;;;;5.9;4.5;;;;;;;37.3;14.5;101080;;;;
2021/06/02 16:22:44;;;;;;;5.9;4.5;;;;;;;37.1;15.3;101070;;;;
2021/06/02 16:24:44;;;;;;;5.9;4.5;;;;;;;37.5;15.2;101080;;;;
2021/06/02 16:26:44;;;;;;;5.9;4.5;;;;;;;37.2;13.5;101070;;;;
2021/06/02 16:28:44;;;;;;;5.9;4.5;;;;;;;37.3;12.6;101070;;;;
2021/06/02 16:30:44;;;;;;;5.9;4.5;;;;;;;37.4;12.8;101070;;;;
2021/06/02 16:32:44;;;;;;;5.9;4.5;;;;;;;37.8;14.2;101070;;;;
2021/06/02 16:34:44;;;;;;;5.9;4.5;;;;;;;38.2;16.2;101070;;;;
2021/06/02 16:36:44;;;;;;;4.0;3.2;;;;;;;38.0;13.9;101070;;;;
2021/06/02 16:42:45;;;;;;;4.0;3.2;;;;;;;38.4;13.1;101070;;;;
2021/06/02 16:44:44;;;;;;;4.0;3.2;;;;;;;38.2;12.5;101070;;;;
2021/06/02 16:48:44;;;;;;;4.0;3.2;;;;;;;37.8;12.6;101070;;;;
2021/06/02 16:50:44;;;;;;;4.0;3.2;;;;;;;37.4;12.5;101060;;;;
2021/06/02 16:52:44;;;;;;;4.0;3.2;;;;;;;38.1;13.6;101070;;;;
2021/06/02 16:54:44;;;;;;;4.0;3.2;;;;;;;38.3;12.9;101060;;;;
2021/06/02 16:56:44;;;;;;;2.8;2.5;;;;;;;38.6;12.9;101070;;;;
2021/06/02 16:58:44;;;;;;;2.8;2.5;;;;;;;38.7;13.6;101070;;;;
2021/06/02 17:00:44;;;;;;;2.8;2.5;;;;;;;38.6;13.4;101060;;;;
2021/06/02 17:02:44;;;;;;;2.8;2.5;;;;;;;38.5;13.1;101060;;;;
2021/06/02 17:06:44;;;;;;;2.8;2.5;;;;;;;38.8;15.6;101060;;;;
2021/06/02 17:10:44;;;;;;;2.8;2.5;;;;;;;38.5;13.2;101070;;;;
2021/06/02 17:12:44;;;;;;;2.8;2.5;;;;;;;37.8;13.5;101070;;;;
2021/06/02 17:14:44;;;;;;;2.8;2.5;;;;;;;38.1;13.6;101080;;;;
2021/06/02 17:16:44;;;;;;;2.2;1.8;;;;;;;38.2;14.0;101080;;;;
2021/06/02 17:18:44;;;;;;;2.2;1.8;;;;;;;38.3;13.6;101070;;;;
2021/06/02 17:24:45;;;;;;;2.2;1.8;;;;;;;38.4;13.8;101070;;;;
2021/06/02 17:26:44;;;;;;;2.2;1.8;;;;;;;38.6;14.7;101070;;;;
2021/06/02 17:30:44;;;;;;;2.2;1.8;;;;;;;38.7;13.4;101080;;;;
2021/06/02 17:32:44;;;;;;;2.2;1.8;;;;;;;38.4;14.7;101080;;;;
2021/06/02 17:34:44;;;;;;;2.2;1.8;;;;;;;38.3;13.3;101080;;;;
2021/06/02 17:36:44;;;;;;;4.7;2.1;;;;;;;38.4;13.8;101090;;;;
2021/06/02 17:40:44;;;;;;;4.7;2.1;;;;;;;38.2;13.3;101090;;;;
2021/06/02 17:42:44;;;;;;;4.7;2.1;;;;;;;37.6;15.7;101090;;;;
2021/06/02 17:44:44;;;;;;;4.7;2.1;;;;;;;37.4;14.0;101090;;;;
2021/06/02 17:46:44;;;;;;;4.7;2.1;;;;;;;36.9;14.1;101090;;;;